createdAt,value
2023-03-02T00:03:46.617Z,0.80
2023-03-02T00:08:48.816Z,0.80
2023-03-02T00:13:51.024Z,0.93
2023-03-02T00:18:53.198Z,0.70
2023-03-02T00:23:55.351Z,0.98
2023-03-02T00:28:57.512Z,0.90
2023-03-02T00:33:59.752Z,0.95
2023-03-02T00:39:01.953Z,0.90
2023-03-02T00:44:04.209Z,1.13
2023-03-02T00:49:06.704Z,0.98
2023-03-02T00:54:09.002Z,1.35
2023-03-02T00:59:26.768Z,0.90
2023-03-02T01:04:42.405Z,0.80
2023-03-02T01:09:45.391Z,1.08
2023-03-02T01:14:48.910Z,1.08
2023-03-02T01:19:51.274Z,0.95
2023-03-02T01:24:53.743Z,0.95
2023-03-02T01:29:56.104Z,1.27
2023-03-02T01:34:58.236Z,1.10
2023-03-02T01:40:00.393Z,1.15
2023-03-02T01:45:04.937Z,1.05
2023-03-02T01:50:25.068Z,1.30
2023-03-02T01:55:33.699Z,1.85
2023-03-02T02:00:37.730Z,1.13
2023-03-02T02:05:41.245Z,1.48
2023-03-02T02:10:43.707Z,1.23
2023-03-02T02:15:46.567Z,1.10
2023-03-02T02:20:49.649Z,1.90
2023-03-02T02:25:58.592Z,1.20
2023-03-02T02:31:09.791Z,1.65
2023-03-02T02:36:17.470Z,0.75
2023-03-02T02:41:22.148Z,1.88
2023-03-02T02:46:26.156Z,1.80
2023-03-02T02:51:29.840Z,2.47
2023-03-02T02:56:36.824Z,1.63
2023-03-02T03:01:40.439Z,1.60
2023-03-02T03:06:50.005Z,1.88
2023-03-02T03:11:54.917Z,1.13
2023-03-02T03:16:57.220Z,1.83
2023-03-02T03:22:00.748Z,1.90
2023-03-02T03:27:08.529Z,1.98
2023-03-02T03:32:14.337Z,1.10
2023-03-02T03:37:18.917Z,1.63
2023-03-02T03:42:21.833Z,1.17
2023-03-02T03:47:25.146Z,1.50
2023-03-02T03:52:30.941Z,1.77
2023-03-02T03:57:43.466Z,2.03
2023-03-02T04:02:45.858Z,1.95
2023-03-02T04:07:48.968Z,2.22
2023-03-02T04:12:51.371Z,1.85
2023-03-02T04:17:54.417Z,3.65
2023-03-02T04:22:58.937Z,1.95
2023-03-02T04:28:01.334Z,2.25
2023-03-02T04:33:07.576Z,1.90
2023-03-02T04:38:10.674Z,2.17
2023-03-02T04:43:13.029Z,2.28
2023-03-02T04:48:15.163Z,1.80
2023-03-02T04:53:17.534Z,3.10
2023-03-02T04:58:19.690Z,2.38
2023-03-02T05:03:21.919Z,2.35
2023-03-02T05:08:24.710Z,2.70
2023-03-02T05:13:27.513Z,2.30
2023-03-02T05:18:29.718Z,2.10
2023-03-02T05:23:32.026Z,2.40
2023-03-02T05:28:34.354Z,2.50
2023-03-02T05:33:36.557Z,1.95
2023-03-02T05:38:38.735Z,2.17
2023-03-02T05:43:40.995Z,2.00
2023-03-02T05:48:43.210Z,2.70
2023-03-02T05:53:45.332Z,2.40
2023-03-02T05:58:49.029Z,2.38
2023-03-02T06:03:51.283Z,2.85
2023-03-02T06:08:53.490Z,2.38
2023-03-02T06:13:55.663Z,2.17
2023-03-02T06:18:57.847Z,1.38
2023-03-02T06:24:00.113Z,1.33
2023-03-02T06:29:02.295Z,2.58
2023-03-02T06:34:04.484Z,2.75
2023-03-02T06:39:07.237Z,2.25
2023-03-02T06:44:09.926Z,1.23
2023-03-02T06:49:14.124Z,2.42
2023-03-02T06:54:16.566Z,2.33
2023-03-02T06:59:18.687Z,1.92
2023-03-02T07:04:21.022Z,1.95
2023-03-02T07:09:23.247Z,1.35
2023-03-02T07:14:25.410Z,2.42
2023-03-02T07:19:27.582Z,1.65
2023-03-02T07:24:29.752Z,1.27
2023-03-02T07:29:31.933Z,1.30
2023-03-02T07:34:34.151Z,1.52
2023-03-02T07:39:36.353Z,1.15
2023-03-02T07:44:38.825Z,1.95
2023-03-02T07:49:41.060Z,1.88
2023-03-02T07:54:43.416Z,1.17
2023-03-02T07:59:45.623Z,1.45
2023-03-02T08:04:47.918Z,0.82
2023-03-02T08:09:52.587Z,1.30
2023-03-02T08:15:32.565Z,0.85
2023-03-02T08:20:34.763Z,1.38
2023-03-02T08:25:38.903Z,1.67
2023-03-02T08:30:41.192Z,1.40
2023-03-02T08:35:43.365Z,1.27
2023-03-02T08:40:45.509Z,1.10
2023-03-02T08:45:51.476Z,1.70
2023-03-02T08:50:58.310Z,1.23
2023-03-02T08:56:00.681Z,1.65
2023-03-02T09:01:03.294Z,1.17
2023-03-02T09:06:06.195Z,1.00
2023-03-02T09:11:08.404Z,0.77
2023-03-02T09:16:10.790Z,1.25
2023-03-02T09:21:13.060Z,1.45
2023-03-02T09:26:15.513Z,1.02
2023-03-02T09:31:17.608Z,0.43
2023-03-02T09:36:21.888Z,0.90
2023-03-02T09:41:39.203Z,0.55
2023-03-02T09:46:41.326Z,1.00
2023-03-02T09:51:45.749Z,0.75
2023-03-02T09:56:55.316Z,1.73
2023-03-02T10:02:06.989Z,0.55
2023-03-02T10:07:13.999Z,0.82
2023-03-02T10:12:37.404Z,1.15
2023-03-02T10:17:42.721Z,1.00
2023-03-02T10:22:48.531Z,1.45
2023-03-02T10:27:52.212Z,1.00
2023-03-02T10:32:55.797Z,0.82
2023-03-02T10:38:00.862Z,2.13
2023-03-02T10:43:04.289Z,0.93
2023-03-02T10:48:07.919Z,0.85
2023-03-02T10:53:17.215Z,0.88
2023-03-02T10:58:33.448Z,0.90
2023-03-02T11:03:35.592Z,0.70
2023-03-02T11:08:37.821Z,0.70
2023-03-02T11:13:40.244Z,1.08
2023-03-02T11:18:42.312Z,1.13
2023-03-02T11:24:02.880Z,0.40
2023-03-02T11:29:12.343Z,0.63
2023-03-02T11:34:18.510Z,0.65
2023-03-02T11:39:24.149Z,0.80
2023-03-02T11:44:27.695Z,0.90
2023-03-02T11:49:37.049Z,0.40
2023-03-02T11:54:46.158Z,1.17
2023-03-02T11:59:48.737Z,0.70
2023-03-02T12:05:01.111Z,2.03
2023-03-02T12:10:08.057Z,1.17
2023-03-02T12:15:29.100Z,1.02
2023-03-02T12:20:31.283Z,0.65
2023-03-02T12:25:40.108Z,0.90
2023-03-02T12:30:42.688Z,0.65
2023-03-02T12:35:45.712Z,1.75
2023-03-02T12:41:02.270Z,1.35
2023-03-02T12:46:20.934Z,1.17
2023-03-02T12:51:24.499Z,0.70
2023-03-02T12:56:26.673Z,1.00
2023-03-02T13:01:30.828Z,0.93
2023-03-02T13:06:36.927Z,1.50
2023-03-02T13:11:39.311Z,0.85
2023-03-02T13:16:41.555Z,1.00
2023-03-02T13:21:44.096Z,0.65
2023-03-02T13:26:54.397Z,0.82
2023-03-02T13:31:56.672Z,1.13
2023-03-02T13:36:59.015Z,1.00
2023-03-02T13:42:02.337Z,1.05
2023-03-02T13:47:04.578Z,0.50
2023-03-02T13:52:08.465Z,0.77
2023-03-02T13:57:19.193Z,0.70
2023-03-02T14:02:25.916Z,0.80
2023-03-02T14:07:28.051Z,0.80
2023-03-02T14:12:31.776Z,0.80
2023-03-02T14:17:33.955Z,0.77
2023-03-02T14:22:36.498Z,1.20
2023-03-02T14:27:39.312Z,1.10
2023-03-02T14:32:41.526Z,1.15
2023-03-02T14:37:48.607Z,0.73
2023-03-02T14:42:52.053Z,1.23
2023-03-02T14:47:54.260Z,1.92
2023-03-02T14:52:58.058Z,2.55
2023-03-02T14:58:02.732Z,1.65
2023-03-02T15:03:04.972Z,1.17
2023-03-02T15:08:07.107Z,0.90
2023-03-02T15:13:14.015Z,1.52
2023-03-02T15:18:19.948Z,2.25
2023-03-02T15:23:22.249Z,1.13
2023-03-02T15:28:24.404Z,1.17
2023-03-02T15:33:26.563Z,1.48
2023-03-02T15:38:28.849Z,1.65
2023-03-02T15:43:31.037Z,1.42
2023-03-02T15:48:33.335Z,2.13
2023-03-02T15:53:38.096Z,2.13
2023-03-02T15:58:41.106Z,1.35
2023-03-02T16:03:43.773Z,1.05
2023-03-02T16:08:46.280Z,1.15
2023-03-02T16:13:48.486Z,1.25
2023-03-02T16:18:54.720Z,1.20
2023-03-02T16:24:03.488Z,1.55
2023-03-02T16:29:08.274Z,0.60
2023-03-02T16:34:10.559Z,1.50
2023-03-02T16:39:12.793Z,1.23
2023-03-02T16:44:15.036Z,0.88
2023-03-02T16:49:17.203Z,1.40
2023-03-02T16:54:19.358Z,1.05
2023-03-02T16:59:21.510Z,1.20
2023-03-02T17:04:23.693Z,1.48
2023-03-02T17:09:25.968Z,1.25
2023-03-02T17:14:28.223Z,1.60
2023-03-02T17:19:30.443Z,1.15
2023-03-02T17:24:33.348Z,1.63
2023-03-02T17:29:35.801Z,1.73
2023-03-02T17:34:38.001Z,1.25
2023-03-02T17:39:40.612Z,0.70
2023-03-02T17:44:44.056Z,1.52
2023-03-02T17:49:46.337Z,1.25
2023-03-02T17:54:48.536Z,1.40
2023-03-02T17:59:50.799Z,1.13
2023-03-02T18:04:53.095Z,1.85
2023-03-02T18:09:55.255Z,1.60
2023-03-02T18:14:57.497Z,1.00
2023-03-02T18:19:59.694Z,1.33
2023-03-02T18:25:01.865Z,1.60
2023-03-02T18:30:05.536Z,2.90
2023-03-02T18:35:08.259Z,2.10
2023-03-02T18:40:11.173Z,2.50
2023-03-02T18:45:21.033Z,3.25
2023-03-02T18:50:23.722Z,1.00
2023-03-02T18:55:26.221Z,1.25
2023-03-02T19:00:29.113Z,1.67
2023-03-02T19:05:31.258Z,1.60
2023-03-02T19:10:33.611Z,1.73
2023-03-02T19:15:37.461Z,2.42
2023-03-02T19:20:39.629Z,2.63
2023-03-02T19:25:42.101Z,1.73
2023-03-02T19:30:44.304Z,1.70
2023-03-02T19:35:46.617Z,2.13
2023-03-02T19:40:50.128Z,2.17
2023-03-02T19:45:52.967Z,1.63
2023-03-02T19:50:55.369Z,1.52
2023-03-02T19:56:01.315Z,1.50
2023-03-02T20:01:05.029Z,1.70
2023-03-02T20:06:07.307Z,1.98
2023-03-02T20:11:09.614Z,1.55
2023-03-02T20:16:13.520Z,1.75
2023-03-02T20:21:15.719Z,1.30
2023-03-02T20:26:18.211Z,1.95
2023-03-02T20:31:20.670Z,1.67
2023-03-02T20:36:25.711Z,1.60
2023-03-02T20:41:28.126Z,1.83
2023-03-02T20:46:33.341Z,1.73
2023-03-02T20:51:36.149Z,1.75
2023-03-02T20:56:38.349Z,1.98
2023-03-02T21:01:40.922Z,2.08
2023-03-02T21:06:43.413Z,2.42
2023-03-02T21:11:46.139Z,1.98
2023-03-02T21:16:48.453Z,2.20
2023-03-02T21:21:50.629Z,2.10
2023-03-02T21:26:53.806Z,2.03
2023-03-02T21:31:56.043Z,2.13
2023-03-02T21:36:59.779Z,2.20
2023-03-02T21:42:01.971Z,2.15
2023-03-02T21:47:04.280Z,2.55
2023-03-02T21:52:08.157Z,2.05
2023-03-02T21:57:10.296Z,2.30
2023-03-02T22:02:13.141Z,2.22
2023-03-02T22:07:15.457Z,2.13
2023-03-02T22:12:17.647Z,1.63
2023-03-02T22:17:21.698Z,1.95
2023-03-02T22:22:26.517Z,1.17
2023-03-02T22:27:30.156Z,1.92
2023-03-02T22:32:38.742Z,2.97
2023-03-02T22:37:40.922Z,1.35
2023-03-02T22:42:43.171Z,1.80
2023-03-02T22:47:49.449Z,2.13
2023-03-02T22:52:51.937Z,1.95
2023-03-02T22:57:54.180Z,2.50
2023-03-02T23:02:56.768Z,1.45
2023-03-02T23:08:28.450Z,1.35
2023-03-02T23:13:40.251Z,1.95
2023-03-02T23:18:43.375Z,2.05
2023-03-02T23:23:45.835Z,1.77
2023-03-02T23:28:48.686Z,1.65
2023-03-02T23:33:50.845Z,1.85
2023-03-02T23:38:53.313Z,1.52
2023-03-02T23:43:55.440Z,1.70
2023-03-02T23:48:57.647Z,2.05
2023-03-02T23:53:59.797Z,1.52
2023-03-02T23:59:02.622Z,1.55
